Time;durP1;ratioP1;P1;durP2;ratioP2;P2;SDS_P1;SDS_P2;PMS_P1;PMS_P2;Temp;Humidity;BMP_temperature;BMP_pressure;BME280_temperature;BME280_humidity;BME280_pressure;Samples;Min_cycle;Max_cycle;Signal;HPM_P1;HPM_P2
2022/08/18 00:00:24;;;;;;;;;;;;;;;16.99;100.00;101289.13;5017704;28;19917;-80
2022/08/18 00:02:50;;;;;;;;;;;;;;;16.96;100.00;101283.00;5023441;28;21351;-79
2022/08/18 00:05:15;;;;;;;;;;;;;;;16.96;100.00;101280.31;5003701;28;19925;-80
2022/08/18 00:07:41;;;;;;;;;;;;;;;16.95;100.00;101278.63;5023051;28;20402;-79
2022/08/18 00:10:12;;;;;;;;;;;;;;;16.95;100.00;101273.25;5023013;28;19925;-79
2022/08/18 00:12:40;;;;;;;;;;;;;;;16.96;100.00;101279.47;5021083;28;19944;-79
2022/08/18 00:15:06;;;;;;;;;;;;;;;16.95;100.00;101281.28;5008589;28;19925;-79
2022/08/18 00:17:31;;;;;;;;;;;;;;;16.96;100.00;101282.16;5004288;28;19928;-78
2022/08/18 00:19:57;;;;;;;;;;;;;;;16.95;100.00;101278.63;5002115;28;19924;-78
2022/08/18 00:22:23;;;;;;;;;;;;;;;16.95;100.00;101281.28;5015174;28;21290;-78
2022/08/18 00:24:50;;;;;;;;;;;;;;;16.98;100.00;101282.91;5022552;28;20707;-78
2022/08/18 00:27:18;;;;;;;;;;;;;;;16.97;100.00;101289.22;5003595;28;19931;-78
2022/08/18 00:29:43;;;;;;;;;;;;;;;16.97;100.00;101292.75;5021979;28;20403;-78
2022/08/18 00:32:16;;;;;;;;;;;;;;;16.99;100.00;101300.66;5019565;28;19935;-78
2022/08/18 00:34:41;;;;;;;;;;;;;;;16.99;100.00;101299.81;5021132;28;20372;-78
2022/08/18 00:37:07;;;;;;;;;;;;;;;16.97;100.00;101294.56;5022076;28;19928;-78
2022/08/18 00:39:33;;;;;;;;;;;;;;;16.98;100.00;101304.28;5021400;28;19952;-78
2022/08/18 00:41:58;;;;;;;;;;;;;;;16.96;100.00;101304.38;5003441;28;19921;-78
2022/08/18 00:44:24;;;;;;;;;;;;;;;16.96;100.00;101298.19;5021680;28;20326;-78
2022/08/18 00:46:49;;;;;;;;;;;;;;;16.97;100.00;101298.09;5023856;28;19931;-78
2022/08/18 00:49:17;;;;;;;;;;;;;;;16.96;100.00;101293.69;5021622;28;20710;-78
2022/08/18 00:51:44;;;;;;;;;;;;;;;16.97;100.00;101290.09;5022340;28;19921;-78
2022/08/18 00:54:18;;;;;;;;;;;;;;;16.96;100.00;101288.34;5003430;28;19925;-78
2022/08/18 00:56:45;;;;;;;;;;;;;;;16.96;100.00;101291.00;5021459;28;21658;-78
2022/08/18 00:59:21;;;;;;;;;;;;;;;16.97;100.00;101289.22;4978388;28;20262;-78
2022/08/18 01:01:47;;;;;;;;;;;;;;;16.96;100.00;101287.50;5023327;28;19920;-78
2022/08/18 01:04:20;;;;;;;;;;;;;;;16.93;100.00;101291.22;5000212;28;19925;-78
2022/08/18 01:06:57;;;;;;;;;;;;;;;16.92;100.00;101288.66;5017771;28;20020;-78
2022/08/18 01:09:25;;;;;;;;;;;;;;;16.89;100.00;101284.34;5022022;28;19964;-78
2022/08/18 01:11:50;;;;;;;;;;;;;;;16.88;100.00;101288.00;5017400;28;19957;-78
2022/08/18 01:14:17;;;;;;;;;;;;;;;16.90;100.00;101291.44;5021057;28;20019;-78
2022/08/18 01:22:32;;;;;;;;;;;;;;;16.96;100.00;101301.72;5018955;28;19923;-77
2022/08/18 01:27:45;;;;;;;;;;;;;;;16.96;100.00;101295.53;5005260;28;19928;-78
2022/08/18 01:30:12;;;;;;;;;;;;;;;16.96;100.00;101287.50;5020760;28;20323;-77
2022/08/18 01:32:38;;;;;;;;;;;;;;;16.97;100.00;101292.75;5020974;28;20513;-77
2022/08/18 01:35:04;;;;;;;;;;;;;;;16.97;100.00;101298.09;5019747;28;19929;-77
2022/08/18 01:37:29;;;;;;;;;;;;;;;16.99;100.00;101299.81;5002847;28;21675;-78
2022/08/18 01:39:54;;;;;;;;;;;;;;;17.00;100.00;101304.22;4982828;28;19968;-77
2022/08/18 01:42:20;;;;;;;;;;;;;;;17.01;100.00;101300.56;5020676;28;20019;-77
2022/08/18 01:44:46;;;;;;;;;;;;;;;17.01;100.00;101297.91;5005704;28;20016;-77
2022/08/18 01:47:12;;;;;;;;;;;;;;;17.02;100.00;101294.28;5021816;28;19999;-77
2022/08/18 01:49:39;;;;;;;;;;;;;;;17.02;100.00;101303.19;5004678;28;20035;-78
2022/08/18 01:52:06;;;;;;;;;;;;;;;17.04;100.00;101295.03;5002839;28;19990;-78
2022/08/18 01:54:31;;;;;;;;;;;;;;;17.05;100.00;101302.97;5020341;28;19925;-78
2022/08/18 01:56:57;;;;;;;;;;;;;;;17.04;100.00;101297.72;5019356;28;19921;-78
2022/08/18 01:59:26;;;;;;;;;;;;;;;17.03;100.00;101296.00;5020649;28;20232;-77
2022/08/18 02:01:55;;;;;;;;;;;;;;;17.04;100.00;101297.72;5031000;28;19932;-77
2022/08/18 02:04:24;;;;;;;;;;;;;;;17.04;100.00;101284.34;5039434;28;19932;-78
2022/08/18 02:06:49;;;;;;;;;;;;;;;17.03;100.00;101290.66;5040724;28;19924;-78
2022/08/18 02:09:15;;;;;;;;;;;;;;;17.03;100.00;101277.28;5020802;28;20457;-78
2022/08/18 02:11:40;;;;;;;;;;;;;;;17.00;100.00;101280.13;5039929;28;20036;-78
2022/08/18 02:14:06;;;;;;;;;;;;;;;16.99;100.00;101273.91;5040766;28;19965;-78
2022/08/18 02:16:32;;;;;;;;;;;;;;;16.97;100.00;101276.72;5040127;28;20378;-78
2022/08/18 02:18:57;;;;;;;;;;;;;;;16.96;100.00;101274.13;5002069;28;19932;-78
2022/08/18 02:21:23;;;;;;;;;;;;;;;16.93;100.00;101277.88;5036910;28;19920;-78
2022/08/18 02:23:48;;;;;;;;;;;;;;;16.91;100.00;101284.28;5042301;28;20081;-77
2022/08/18 02:26:14;;;;;;;;;;;;;;;16.90;100.00;101277.22;5019153;28;19964;-78
2022/08/18 02:28:40;;;;;;;;;;;;;;;16.90;100.00;101285.22;5040929;28;19974;-78
2022/08/18 02:31:06;;;;;;;;;;;;;;;16.90;100.00;101283.44;5039953;28;19925;-78
2022/08/18 02:33:32;;;;;;;;;;;;;;;16.91;100.00;101285.13;5038685;28;21239;-78
2022/08/18 02:35:58;;;;;;;;;;;;;;;16.91;100.00;101282.47;5041029;28;20639;-78
2022/08/18 02:38:23;;;;;;;;;;;;;;;16.93;100.00;101280.53;5002715;28;19930;-78
2022/08/18 02:41:00;;;;;;;;;;;;;;;16.93;100.00;101279.66;5038297;28;20306;-77
2022/08/18 02:43:26;;;;;;;;;;;;;;;16.95;100.00;101281.28;5037434;28;19928;-78
2022/08/18 02:45:51;;;;;;;;;;;;;;;16.95;100.00;101272.41;5021465;28;19975;-80
2022/08/18 02:48:23;;;;;;;;;;;;;;;16.95;100.00;101267.91;5021241;28;20482;-79
2022/08/18 02:50:48;;;;;;;;;;;;;;;16.97;100.00;101275.84;5040378;28;20507;-79
2022/08/18 02:53:20;;;;;;;;;;;;;;;16.97;100.00;101274.03;5039858;28;19940;-80
2022/08/18 02:55:46;;;;;;;;;;;;;;;16.97;100.00;101270.50;5038619;28;21266;-78
2022/08/18 02:58:12;;;;;;;;;;;;;;;16.97;100.00;101287.41;5031500;28;20299;-78
2022/08/18 03:00:37;;;;;;;;;;;;;;;16.97;100.00;101287.41;5024876;28;19936;-78
2022/08/18 03:03:03;;;;;;;;;;;;;;;16.99;100.00;101287.28;5035943;28;19920;-78
2022/08/18 03:05:29;;;;;;;;;;;;;;;17.00;100.00;101290.84;5040715;28;19921;-78
2022/08/18 03:07:58;;;;;;;;;;;;;;;17.01;100.00;101287.19;5020852;28;19928;-78
2022/08/18 03:10:24;;;;;;;;;;;;;;;17.00;100.00;101286.31;5038075;28;19922;-78
2022/08/18 03:12:50;;;;;;;;;;;;;;;17.00;100.00;101291.69;5036884;28;19924;-78
2022/08/18 03:15:15;;;;;;;;;;;;;;;17.00;100.00;101296.19;5040217;28;19924;-78
2022/08/18 03:17:40;;;;;;;;;;;;;;;17.00;100.00;101291.69;5038049;28;20462;-78
2022/08/18 03:20:06;;;;;;;;;;;;;;;17.00;100.00;101290.84;4988084;28;19932;-78
2022/08/18 03:22:32;;;;;;;;;;;;;;;17.00;100.00;101286.31;5005145;28;19921;-78
2022/08/18 03:24:58;;;;;;;;;;;;;;;17.01;100.00;101292.53;5038936;28;19932;-78
2022/08/18 03:27:23;;;;;;;;;;;;;;;17.02;100.00;101304.97;5023751;28;19921;-78
2022/08/18 03:29:50;;;;;;;;;;;;;;;17.03;100.00;101290.66;5037710;28;19920;-77
2022/08/18 03:32:15;;;;;;;;;;;;;;;17.05;100.00;101294.09;5038467;28;19931;-78
2022/08/18 03:34:41;;;;;;;;;;;;;;;17.04;100.00;101297.72;5041659;28;19920;-78
2022/08/18 03:37:07;;;;;;;;;;;;;;;17.06;100.00;101295.81;5039720;28;19925;-78
2022/08/18 03:39:33;;;;;;;;;;;;;;;17.08;100.00;101299.25;5038802;28;19925;-78
2022/08/18 03:41:58;;;;;;;;;;;;;;;17.07;100.00;101293.06;5039534;28;19924;-78
2022/08/18 03:44:24;;;;;;;;;;;;;;;17.08;100.00;101299.25;5020403;28;19968;-79
2022/08/18 03:46:50;;;;;;;;;;;;;;;17.08;100.00;101296.56;5023748;28;20017;-78
2022/08/18 03:49:16;;;;;;;;;;;;;;;17.09;100.00;101299.16;5039108;28;19964;-77
2022/08/18 03:51:48;;;;;;;;;;;;;;;17.10;100.00;101305.34;5038700;28;20124;-78
2022/08/18 03:54:15;;;;;;;;;;;;;;;17.11;100.00;101320.44;5038446;28;19972;-78
2022/08/18 03:56:40;;;;;;;;;;;;;;;17.10;100.00;101314.22;5021166;28;19920;-78
2022/08/18 03:59:11;;;;;;;;;;;;;;;17.10;100.00;101308.00;5035716;28;19966;-79
2022/08/18 04:01:40;;;;;;;;;;;;;;;17.12;100.00;101307.91;5035175;28;20397;-78
2022/08/18 04:04:07;;;;;;;;;;;;;;;17.12;100.00;101311.47;5039343;28;19972;-78
2022/08/18 04:06:38;;;;;;;;;;;;;;;17.14;100.00;101311.34;5018686;28;19920;-78
2022/08/18 04:09:05;;;;;;;;;;;;;;;17.13;100.00;101318.53;5036479;28;20036;-78
2022/08/18 04:11:31;;;;;;;;;;;;;;;17.14;100.00;101319.38;5041132;28;19920;-78
2022/08/18 04:13:56;;;;;;;;;;;;;;;17.14;100.00;101324.72;5038231;28;19996;-77
2022/08/18 04:16:23;;;;;;;;;;;;;;;17.13;100.00;101314.97;5019122;28;19925;-77
2022/08/18 04:18:48;;;;;;;;;;;;;;;17.14;100.00;101320.22;5021650;28;19921;-77
2022/08/18 04:21:14;;;;;;;;;;;;;;;17.16;100.00;101320.13;5041308;28;19928;-77
2022/08/18 04:23:42;;;;;;;;;;;;;;;17.16;100.00;101317.47;5042526;28;19917;-78
2022/08/18 04:26:09;;;;;;;;;;;;;;;17.15;100.00;101315.75;5042034;28;19940;-78
2022/08/18 04:28:34;;;;;;;;;;;;;;;17.15;100.00;101321.09;5037831;28;19924;-77
2022/08/18 04:31:05;;;;;;;;;;;;;;;17.16;100.00;101312.13;5007295;28;20507;-77
2022/08/18 04:33:30;;;;;;;;;;;;;;;17.17;100.00;101319.19;5043111;28;19960;-77
2022/08/18 04:36:01;;;;;;;;;;;;;;;17.18;100.00;101320.88;5041384;28;20148;-77
2022/08/18 04:38:26;;;;;;;;;;;;;;;17.18;100.00;101320.88;5042582;28;19925;-77
2022/08/18 04:40:52;;;;;;;;;;;;;;;17.18;100.00;101327.09;5042321;28;20306;-77
2022/08/18 04:43:17;;;;;;;;;;;;;;;17.18;100.00;101321.75;5041531;28;19921;-78
2022/08/18 04:45:46;;;;;;;;;;;;;;;17.19;100.00;101326.16;5042066;28;20555;-78
2022/08/18 04:48:21;;;;;;;;;;;;;;;17.20;100.00;101330.53;5023023;28;19951;-78
2022/08/18 04:50:47;;;;;;;;;;;;;;;17.19;100.00;101328.81;5043394;28;19943;-78
2022/08/18 04:56:03;;;;;;;;;;;;;;;17.21;100.00;101318.88;5041964;28;19924;-78
2022/08/18 04:58:28;;;;;;;;;;;;;;;17.22;100.00;101315.22;5039265;28;19948;-78
2022/08/18 05:00:58;;;;;;;;;;;;;;;17.23;100.00;101322.28;5042629;28;20516;-78
2022/08/18 05:03:25;;;;;;;;;;;;;;;17.22;100.00;101323.25;5004156;28;20272;-78
2022/08/18 05:05:54;;;;;;;;;;;;;;;17.23;100.00;101337.50;5006054;28;19960;-78
2022/08/18 05:08:21;;;;;;;;;;;;;;;17.22;100.00;101338.47;5022983;28;19925;-78
2022/08/18 05:10:47;;;;;;;;;;;;;;;17.25;100.00;101343.59;5019194;28;19980;-78
2022/08/18 05:13:22;;;;;;;;;;;;;;;17.26;100.00;101339.13;5021110;28;20359;-78
2022/08/18 05:16:02;;;;;;;;;;;;;;;17.27;100.00;101338.16;5021326;28;20417;-78
2022/08/18 05:18:39;;;;;;;;;;;;;;;17.30;100.00;101349.50;5023679;28;19921;-78
2022/08/18 05:21:13;;;;;;;;;;;;;;;17.33;100.00;101343.09;5007484;28;19920;-78
2022/08/18 05:23:42;;;;;;;;;;;;;;;17.35;100.00;101344.72;5019511;28;19925;-78
2022/08/18 05:26:08;;;;;;;;;;;;;;;17.37;100.00;101342.78;5021413;28;19988;-78
2022/08/18 05:28:36;;;;;;;;;;;;;;;17.38;100.00;101338.31;5021134;28;19928;-78
2022/08/18 05:31:21;;;;;;;;;;;;;;;17.42;100.00;101345.16;5018948;28;19932;-78
2022/08/18 05:33:47;;;;;;;;;;;;;;;17.43;100.00;101348.69;5021490;28;19925;-78
2022/08/18 05:36:23;;;;;;;;;;;;;;;17.44;100.00;101353.09;5020738;28;19925;-78
2022/08/18 05:39:03;;;;;;;;;;;;;;;17.46;100.00;101353.84;5002081;28;20363;-78
2022/08/18 05:41:40;;;;;;;;;;;;;;;17.46;100.00;101352.03;5005767;28;19931;-78
2022/08/18 05:44:06;;;;;;;;;;;;;;;17.48;100.00;101358.13;5020724;28;19931;-78
2022/08/18 05:46:39;;;;;;;;;;;;;;;17.50;100.00;101358.88;5006367;28;19921;-78
2022/08/18 05:49:05;;;;;;;;;;;;;;;17.50;100.00;101360.72;5022878;28;19978;-78
2022/08/18 05:51:37;;;;;;;;;;;;;;;17.50;100.00;101356.19;5020835;28;20019;-78
2022/08/18 05:56:54;;;;;;;;;;;;;;;17.55;100.00;101360.41;5020300;28;19921;-78
2022/08/18 05:59:24;;;;;;;;;;;;;;;17.56;100.00;101356.75;5001895;28;19932;-78
2022/08/18 06:01:53;;;;;;;;;;;;;;;17.59;100.00;101351.22;5019307;28;19983;-77
2022/08/18 06:04:23;;;;;;;;;;;;;;;17.60;100.00;101351.09;5002777;28;19921;-78
2022/08/18 06:06:48;;;;;;;;;;;;;;;17.66;100.00;101349.84;4983832;28;20578;-77
2022/08/18 06:09:23;;;;;;;;;;;;;;;17.70;100.00;101343.28;4994886;28;19925;-78
2022/08/18 06:11:48;;;;;;;;;;;;;;;17.78;100.00;101357.00;4982123;28;19925;-78
2022/08/18 06:14:14;;;;;;;;;;;;;;;17.87;100.00;101354.69;5020524;28;19925;-78
2022/08/18 06:16:49;;;;;;;;;;;;;;;17.95;100.00;101357.69;5001883;28;19924;-79
2022/08/18 06:19:19;;;;;;;;;;;;;;;17.97;100.00;101355.75;4986016;28;19927;-78
2022/08/18 06:21:49;;;;;;;;;;;;;;;17.99;100.00;101352.97;5022797;28;19951;-78
2022/08/18 06:24:34;;;;;;;;;;;;;;;18.02;100.00;101358.13;5020374;28;19921;-78
2022/08/18 06:27:00;;;;;;;;;;;;;;;18.02;100.00;101350.94;5002573;28;19921;-78
2022/08/18 06:29:46;;;;;;;;;;;;;;;18.05;100.00;101363.31;5005508;28;19932;-78
2022/08/18 06:32:27;;;;;;;;;;;;;;;18.03;100.00;101358.00;5020064;28;20075;-78
2022/08/18 06:35:01;;;;;;;;;;;;;;;18.03;100.00;101347.31;5020374;28;19920;-78
2022/08/18 06:37:29;;;;;;;;;;;;;;;18.05;100.00;101348.06;5017928;28;19963;-78
2022/08/18 06:39:55;;;;;;;;;;;;;;;18.13;100.00;101349.34;5019859;28;20607;-78
2022/08/18 06:42:25;;;;;;;;;;;;;;;18.13;100.00;101357.41;5017874;28;20254;-78
2022/08/18 06:44:52;;;;;;;;;;;;;;;18.16;100.00;101358.06;5004703;28;19924;-78
2022/08/18 06:47:29;;;;;;;;;;;;;;;18.23;100.00;101357.63;5005514;28;20385;-78
2022/08/18 06:50:01;;;;;;;;;;;;;;;18.34;100.00;101356.88;5016342;28;19921;-78
2022/08/18 06:52:27;;;;;;;;;;;;;;;18.37;100.00;101356.66;5018793;28;19921;-78
2022/08/18 06:54:54;;;;;;;;;;;;;;;18.38;100.00;101364.59;5023218;28;19925;-77
2022/08/18 06:57:26;;;;;;;;;;;;;;;18.36;100.00;101371.03;4972517;28;19929;-78
2022/08/18 06:59:56;;;;;;;;;;;;;;;18.37;100.00;101375.41;5015068;28;19928;-78
2022/08/18 07:02:23;;;;;;;;;;;;;;;18.39;100.00;101369.00;5022463;28;19929;-78
2022/08/18 07:05:07;;;;;;;;;;;;;;;18.39;100.00;101366.31;5020363;28;20012;-78
2022/08/18 07:07:34;;;;;;;;;;;;;;;18.39;100.00;101370.81;5005387;28;19928;-78
2022/08/18 07:10:00;;;;;;;;;;;;;;;18.38;100.00;101379.81;5016999;28;19919;-79
2022/08/18 07:12:26;;;;;;;;;;;;;;;18.35;100.00;101372.84;4982683;28;20305;-78
2022/08/18 07:14:53;;;;;;;;;;;;;;;18.32;100.00;101378.44;5018728;28;19975;-78
2022/08/18 07:17:32;;;;;;;;;;;;;;;18.32;100.00;101379.28;4994109;28;19967;-79
2022/08/18 07:19:59;;;;;;;;;;;;;;;18.31;100.00;101384.75;5020318;28;19968;-79
2022/08/18 07:22:24;;;;;;;;;;;;;;;18.34;100.00;101378.34;5018176;28;20028;-78
2022/08/18 07:24:51;;;;;;;;;;;;;;;18.40;100.00;101383.22;4998226;28;19925;-78
2022/08/18 07:27:40;;;;;;;;;;;;;;;18.48;100.00;101386.25;5020056;28;19975;-78
2022/08/18 07:30:20;;;;;;;;;;;;;;;18.54;100.00;101388.50;4996846;28;20510;-79
2022/08/18 07:33:06;;;;;;;;;;;;;;;18.58;100.00;101387.31;5001410;28;20614;-77
2022/08/18 07:35:38;;;;;;;;;;;;;;;18.59;100.00;101380.97;5005473;28;20072;-78
2022/08/18 07:38:21;;;;;;;;;;;;;;;18.65;100.00;101384.19;5013845;28;21326;-79
2022/08/18 07:40:50;;;;;;;;;;;;;;;18.64;100.00;101377.97;5018873;28;19931;-78
2022/08/18 07:43:28;;;;;;;;;;;;;;;18.65;100.00;101385.06;5019711;28;19960;-79
2022/08/18 07:45:54;;;;;;;;;;;;;;;18.76;100.00;101381.59;4975354;28;20680;-79
2022/08/18 07:48:22;;;;;;;;;;;;;;;18.85;100.00;101383.59;5019890;28;20344;-79
2022/08/18 07:51:08;;;;;;;;;;;;;;;18.88;100.00;101387.91;5017003;28;20449;-79
2022/08/18 07:53:34;;;;;;;;;;;;;;;18.89;100.00;101389.59;5006683;28;20019;-80
2022/08/18 07:56:01;;;;;;;;;;;;;;;18.89;100.00;101394.13;5001900;28;20455;-78
2022/08/18 07:58:33;;;;;;;;;;;;;;;18.90;100.00;101390.47;5022754;28;19920;-78
2022/08/18 08:01:19;;;;;;;;;;;;;;;18.92;100.00;101391.22;5022688;28;19948;-79
2022/08/18 08:03:51;;;;;;;;;;;;;;;18.93;100.00;101384.88;5024203;28;19975;-80
2022/08/18 08:06:34;;;;;;;;;;;;;;;18.98;100.00;101397.00;5022525;28;20008;-78
2022/08/18 08:08:59;;;;;;;;;;;;;;;19.07;100.00;101394.66;5006871;28;20707;-78
2022/08/18 08:12:00;;;;;;;;;;;;;;;19.11;100.00;101394.31;5023809;28;19925;-78
2022/08/18 08:14:40;;;;;;;;;;;;;;;19.21;100.00;101393.63;4940721;28;20301;-78
2022/08/18 08:17:31;;;;;;;;;;;;;;;19.25;100.00;101405.84;4996885;28;19971;-78
2022/08/18 08:20:10;;;;;;;;;;;;;;;19.25;100.00;101416.59;5023715;28;20378;-78
2022/08/18 08:22:54;;;;;;;;;;;;;;;19.21;100.00;101417.78;5007639;28;20074;-79
2022/08/18 08:25:24;;;;;;;;;;;;;;;19.20;100.00;101419.63;5022232;28;19930;-78
2022/08/18 08:27:50;;;;;;;;;;;;;;;19.22;100.00;101422.16;4985108;28;20447;-78
2022/08/18 08:30:16;;;;;;;;;;;;;;;19.19;100.00;101425.97;5021865;28;19976;-78
2022/08/18 08:32:51;;;;;;;;;;;;;;;19.19;100.00;101431.31;5003633;28;19925;-77
2022/08/18 08:35:25;;;;;;;;;;;;;;;19.23;100.00;101440.00;5023295;28;20533;-78
2022/08/18 08:37:51;;;;;;;;;;;;;;;19.23;100.00;101440.84;5003818;28;19944;-78
2022/08/18 08:40:18;;;;;;;;;;;;;;;19.18;100.00;101434.13;5004795;28;20370;-78
2022/08/18 08:42:49;;;;;;;;;;;;;;;19.13;100.00;101440.66;5013445;28;19948;-79
2022/08/18 08:45:16;;;;;;;;;;;;;;;19.11;100.00;101436.38;5003704;28;19963;-79
2022/08/18 08:47:47;;;;;;;;;;;;;;;19.13;100.00;101437.97;5023970;28;19920;-79
2022/08/18 08:50:14;;;;;;;;;;;;;;;19.24;100.00;101439.03;5024130;28;19928;-79
2022/08/18 08:52:41;;;;;;;;;;;;;;;19.28;100.00;101440.50;5001396;28;19931;-79
2022/08/18 08:55:10;;;;;;;;;;;;;;;19.29;100.00;101444.94;5003329;28;19963;-79
2022/08/18 08:57:38;;;;;;;;;;;;;;;19.29;100.00;101444.94;5007255;28;20307;-79
2022/08/18 09:00:05;;;;;;;;;;;;;;;19.29;100.00;101452.97;5003900;28;19949;-79
2022/08/18 09:02:51;;;;;;;;;;;;;;;19.26;100.00;101450.50;5021426;28;19924;-79
2022/08/18 09:05:24;;;;;;;;;;;;;;;19.20;100.00;101446.47;5019096;28;19932;-79
2022/08/18 09:08:01;;;;;;;;;;;;;;;19.20;100.00;101446.47;5022681;28;19994;-79
2022/08/18 09:10:47;;;;;;;;;;;;;;;19.19;100.00;101454.59;5003286;28;20019;-79
2022/08/18 09:13:30;;;;;;;;;;;;;;;19.13;100.00;101446.03;5002576;28;20540;-78
2022/08/18 09:15:59;;;;;;;;;;;;;;;19.14;100.00;101449.59;5019892;28;20504;-78
2022/08/18 09:18:27;;;;;;;;;;;;;;;19.13;100.00;101445.19;5021921;28;19924;-79
2022/08/18 09:20:59;;;;;;;;;;;;;;;19.09;100.00;101446.38;5021661;28;19925;-79
2022/08/18 09:23:43;;;;;;;;;;;;;;;19.06;100.00;101444.75;5022216;28;20621;-79
2022/08/18 09:26:21;;;;;;;;;;;;;;;19.03;100.00;101453.03;5022357;28;19931;-79
2022/08/18 09:28:56;;;;;;;;;;;;;;;19.02;100.00;101448.66;5006020;28;20019;-79
2022/08/18 09:31:22;;;;;;;;;;;;;;;18.96;100.00;101455.25;5003906;28;20362;-79
2022/08/18 09:33:53;;;;;;;;;;;;;;;18.98;100.00;101453.34;5002604;28;20168;-80
2022/08/18 09:36:28;;;;;;;;;;;;;;;18.99;100.00;101452.38;5002843;28;19921;-79
2022/08/18 09:42:00;;;;;;;;;;;;;;;19.08;100.00;101456.25;5021945;28;19925;-79
2022/08/18 09:44:44;;;;;;;;;;;;;;;19.14;100.00;101455.78;5021397;28;19932;-79
2022/08/18 09:47:10;;;;;;;;;;;;;;;19.20;100.00;101446.47;5021512;28;19925;-79
2022/08/18 09:50:01;;;;;;;;;;;;;;;19.21;100.00;101442.78;5020407;28;19924;-79
2022/08/18 09:52:27;;;;;;;;;;;;;;;19.29;100.00;101447.63;4985481;28;19968;-79
2022/08/18 09:54:52;;;;;;;;;;;;;;;19.34;100.00;101445.44;5021361;28;20494;-78
2022/08/18 09:57:19;;;;;;;;;;;;;;;19.35;100.00;101436.41;5019623;28;19921;-78
2022/08/18 09:59:46;;;;;;;;;;;;;;;19.38;100.00;101446.94;5021107;28;19921;-78
2022/08/18 10:02:36;;;;;;;;;;;;;;;19.49;100.00;101450.63;5030433;28;19929;-78
2022/08/18 10:05:19;;;;;;;;;;;;;;;19.65;100.00;101439.59;5039731;28;19924;-79
2022/08/18 10:08:04;;;;;;;;;;;;;;;19.81;100.00;101444.69;5042292;28;19927;-78
2022/08/18 10:10:43;;;;;;;;;;;;;;;19.93;100.00;101448.28;5037836;28;19970;-78
2022/08/18 10:13:11;;;;;;;;;;;;;;;20.04;100.00;101442.13;5022541;28;21739;-78
2022/08/18 10:15:55;;;;;;;;;;;;;;;20.18;100.00;101449.13;5025550;28;19924;-78
2022/08/18 10:18:24;;;;;;;;;;;;;;;20.24;100.00;101442.41;5040986;28;20930;-77
2022/08/18 10:20:56;;;;;;;;;;;;;;;20.22;100.00;101446.06;5039226;28;20053;-78
2022/08/18 10:23:40;;;;;;;;;;;;;;;20.28;100.00;101454.66;5040731;28;19964;-78
2022/08/18 10:26:25;;;;;;;;;;;;;;;20.21;100.00;101451.59;5038718;28;20367;-78
2022/08/18 10:28:52;;;;;;;;;;;;;;;20.20;100.00;101449.84;5042962;28;19920;-78
2022/08/18 10:31:17;;;;;;;;;;;;;;;20.25;100.00;101446.84;5040262;28;19935;-78
2022/08/18 10:33:57;;;;;;;;;;;;;;;20.26;100.00;101443.16;5039977;28;19921;-78
2022/08/18 10:36:41;;;;;;;;;;;;;;;20.30;100.00;101440.13;5003744;28;20531;-79
2022/08/18 10:39:09;;;;;;;;;;;;;;;20.32;100.00;101435.47;5042563;28;19924;-79
2022/08/18 10:41:35;;;;;;;;;;;;;;;20.38;100.00;101442.22;5042782;28;19930;-78
2022/08/18 10:44:00;;;;;;;;;;;;;;;20.46;100.00;101433.53;5005828;28;19925;-78
2022/08/18 10:46:27;;;;;;;;;;;;;;;20.43;100.00;101440.00;5014354;28;19924;-78
2022/08/18 10:49:00;;;;;;;;;;;;;;;20.52;100.00;101440.28;5024735;28;19916;-78
2022/08/18 10:51:32;;;;;;;;;;;;;;;20.54;100.00;101435.63;5025794;28;21337;-78
2022/08/18 10:53:57;;;;;;;;;;;;;;;20.59;100.00;101441.50;5040311;28;20317;-78
2022/08/18 10:56:34;;;;;;;;;;;;;;;20.67;100.00;101439.06;5020658;28;19920;-78
2022/08/18 10:59:06;;;;;;;;;;;;;;;20.69;100.00;101449.72;5036745;28;19928;-79
2022/08/18 11:01:50;;;;;;;;;;;;;;;20.67;100.00;101451.63;5037258;28;19994;-79
2022/08/18 11:04:19;;;;;;;;;;;;;;;20.67;100.00;101452.50;5021226;28;19925;-78
2022/08/18 11:06:46;;;;;;;;;;;;;;;20.72;100.00;101450.31;5041372;28;19927;-79
2022/08/18 11:09:21;;;;;;;;;;;;;;;20.65;100.00;101454.47;5039275;28;19925;-79
2022/08/18 11:11:47;;;;;;;;;;;;;;;20.61;100.00;101451.13;5004395;28;19924;-79
2022/08/18 11:14:32;;;;;;;;;;;;;;;20.62;100.00;101454.69;5021478;28;20199;-79
2022/08/18 11:17:01;;;;;;;;;;;;;;;20.76;100.00;101451.78;5020083;28;19920;-79
2022/08/18 11:19:27;;;;;;;;;;;;;;;20.90;100.00;101452.53;5040422;28;19977;-79
2022/08/18 11:21:52;;;;;;;;;;;;;;;20.96;100.00;101456.59;5040178;28;19943;-78
2022/08/18 11:24:25;;;;;;;;;;;;;;;21.03;100.00;101453.25;5040615;28;19924;-79
2022/08/18 11:26:52;;;;;;;;;;;;;;;21.11;100.00;101443.72;5021495;28;19921;-79
2022/08/18 11:29:27;;;;;;;;;;;;;;;21.11;100.00;101449.97;5044081;28;19920;-79
2022/08/18 11:32:12;;;;;;;;;;;;;;;21.00;100.00;101448.13;5045733;28;19979;-79
2022/08/18 11:34:42;;;;;;;;;;;;;;;20.95;100.00;101455.72;5043497;28;19927;-79
2022/08/18 11:37:12;;;;;;;;;;;;;;;20.90;100.00;101452.53;5043262;28;20383;-79
2022/08/18 11:39:42;;;;;;;;;;;;;;;20.90;100.00;101457.91;5022287;28;19966;-79
2022/08/18 11:42:07;;;;;;;;;;;;;;;21.05;100.00;101450.47;5024444;28;19925;-79
2022/08/18 11:44:33;;;;;;;;;;;;;;;21.17;100.00;101448.59;5045623;28;20398;-79
2022/08/18 11:47:19;;;;;;;;;;;;;;;21.21;100.00;101443.81;5009159;28;20291;-79
2022/08/18 11:49:57;;;;;;;;;;;;;;;21.25;100.00;101451.50;5006512;28;19932;-79
2022/08/18 11:52:27;;;;;;;;;;;;;;;21.22;97.83;101446.38;5040709;28;20013;-79
2022/08/18 11:54:57;;;;;;;;;;;;;;;21.21;98.56;101449.19;5024825;28;20545;-79
2022/08/18 11:57:42;;;;;;;;;;;;;;;21.20;100.00;101455.56;5045577;28;19924;-79
2022/08/18 12:00:26;;;;;;;;;;;;;;;21.22;100.00;101449.09;5042192;28;19921;-79
2022/08/18 12:03:01;;;;;;;;;;;;;;;21.28;100.00;101445.91;5026284;28;19967;-79
2022/08/18 12:05:27;;;;;;;;;;;;;;;21.34;100.00;101446.38;5040834;28;20306;-80
2022/08/18 12:07:52;;;;;;;;;;;;;;;21.36;99.96;101447.09;5028248;28;19925;-79
2022/08/18 12:10:26;;;;;;;;;;;;;;;21.37;99.44;101443.41;5028943;28;19959;-79
2022/08/18 12:12:52;;;;;;;;;;;;;;;21.43;100.00;101443.78;5029699;28;19921;-79
2022/08/18 12:15:17;;;;;;;;;;;;;;;21.41;100.00;101444.88;5024899;28;19930;-79
2022/08/18 12:17:44;;;;;;;;;;;;;;;21.34;96.91;101433.75;5044355;28;19939;-79
2022/08/18 12:20:10;;;;;;;;;;;;;;;21.20;99.61;101437.59;5043314;28;19973;-79
2022/08/18 12:22:36;;;;;;;;;;;;;;;21.09;98.98;101432.22;5042573;28;19924;-79
2022/08/18 12:25:03;;;;;;;;;;;;;;;21.09;99.14;101429.53;5043021;28;19928;-79
2022/08/18 12:27:30;;;;;;;;;;;;;;;21.12;99.71;101430.13;5024749;28;21615;-79
2022/08/18 12:29:57;;;;;;;;;;;;;;;21.06;98.19;101437.84;5042572;28;19925;-79
2022/08/18 12:32:25;;;;;;;;;;;;;;;21.06;98.81;101427.94;5043342;28;19935;-79
2022/08/18 12:34:51;;;;;;;;;;;;;;;21.13;97.24;101418.38;5043578;28;19964;-79
2022/08/18 12:37:20;;;;;;;;;;;;;;;21.15;95.39;101419.09;5023590;28;20269;-80
2022/08/18 12:39:46;;;;;;;;;;;;;;;21.21;96.73;101411.50;5006842;28;19928;-79
2022/08/18 12:42:11;;;;;;;;;;;;;;;21.23;96.18;101410.41;5043479;28;20370;-79
2022/08/18 12:44:37;;;;;;;;;;;;;;;21.27;96.37;101409.19;5024578;28;20391;-78
2022/08/18 12:47:05;;;;;;;;;;;;;;;21.32;94.15;101402.53;5023452;28;19920;-78
2022/08/18 12:49:30;;;;;;;;;;;;;;;21.30;95.92;101400.84;5044429;28;19995;-78
2022/08/18 12:51:56;;;;;;;;;;;;;;;21.28;95.89;101397.44;5042251;28;19924;-79
2022/08/18 12:54:24;;;;;;;;;;;;;;;21.29;97.10;101404.53;5039459;28;19952;-79
2022/08/18 12:56:50;;;;;;;;;;;;;;;21.30;97.17;101406.22;5042479;28;19924;-79
2022/08/18 12:59:16;;;;;;;;;;;;;;;21.30;97.44;101400.84;5039324;28;20369;-79